METAR Data
IDs: Format: Raw Decoded Include TAF

Data at: 1220 UTC 24 May 2022

KFPK 241215Z AUTO 06004KT 10SM CLR 09/04 A3029 RMK AO2 T00880035